createdAt,value
2023-01-17T00:01:34.115Z,6.81
2023-01-17T00:04:19.630Z,6.82
2023-01-17T00:07:06.679Z,6.77
2023-01-17T00:09:57.395Z,6.92
2023-01-17T00:12:26.537Z,6.87
2023-01-17T00:14:55.389Z,6.93
2023-01-17T00:17:23.666Z,6.81
2023-01-17T00:20:09.658Z,6.99
2023-01-17T00:22:56.608Z,6.93
2023-01-17T00:25:43.784Z,7.00
2023-01-17T00:28:10.906Z,6.92
2023-01-17T00:30:37.816Z,7.04
2023-01-17T00:33:07.165Z,7.08
2023-01-17T00:35:34.386Z,6.93
2023-01-17T00:38:07.201Z,7.12
2023-01-17T00:40:34.612Z,7.27
2023-01-17T00:43:19.880Z,7.25
2023-01-17T00:46:05.523Z,7.28
2023-01-17T00:48:52.629Z,7.27
2023-01-17T00:51:38.480Z,7.21
2023-01-17T00:54:26.756Z,7.16
2023-01-17T00:57:12.666Z,7.26
2023-01-17T00:59:58.454Z,7.21
2023-01-17T01:02:44.456Z,7.34
2023-01-17T01:05:30.486Z,7.09
2023-01-17T01:08:15.870Z,7.30
2023-01-17T01:11:03.085Z,7.21
2023-01-17T01:13:49.026Z,7.29
2023-01-17T01:16:34.853Z,7.33
2023-01-17T01:19:21.580Z,7.12
2023-01-17T01:22:06.954Z,7.21
2023-01-17T01:24:52.523Z,7.29
2023-01-17T01:27:39.871Z,7.36
2023-01-17T01:30:26.274Z,7.11
2023-01-17T01:33:11.554Z,6.95
2023-01-17T01:35:41.898Z,7.14
2023-01-17T01:38:12.204Z,6.94
2023-01-17T01:40:45.088Z,7.06
2023-01-17T01:43:16.393Z,6.96
2023-01-17T01:45:47.153Z,7.09
2023-01-17T01:48:24.266Z,7.12
2023-01-17T01:50:55.028Z,6.95
2023-01-17T01:53:23.177Z,6.97
2023-01-17T01:55:51.295Z,7.27
2023-01-17T01:58:22.792Z,6.98
2023-01-17T02:00:51.241Z,7.04
2023-01-17T02:03:21.067Z,7.06
2023-01-17T02:05:49.147Z,7.19
2023-01-17T02:08:19.216Z,7.11
2023-01-17T02:10:47.402Z,6.96
2023-01-17T02:13:16.981Z,7.07
2023-01-17T02:15:53.313Z,6.96
2023-01-17T02:18:25.828Z,6.85
2023-01-17T02:20:59.943Z,6.90
2023-01-17T02:24:06.033Z,6.68
2023-01-17T02:26:52.950Z,6.75
2023-01-17T02:30:00.821Z,6.83
2023-01-17T02:32:35.689Z,6.82
2023-01-17T02:35:05.801Z,6.74
2023-01-17T02:37:37.252Z,6.87
2023-01-17T02:40:07.758Z,6.64
2023-01-17T02:42:38.538Z,6.71
2023-01-17T02:45:08.331Z,6.81
2023-01-17T02:47:38.024Z,6.55
2023-01-17T02:50:07.449Z,6.47
2023-01-17T02:52:56.145Z,6.58
2023-01-17T02:55:29.380Z,6.50
2023-01-17T02:58:04.007Z,6.60
2023-01-17T03:00:34.943Z,6.63
2023-01-17T03:03:08.188Z,6.47
2023-01-17T03:05:39.263Z,6.57
2023-01-17T03:08:07.888Z,6.39
2023-01-17T03:10:35.929Z,6.26
2023-01-17T03:13:04.100Z,6.40
2023-01-17T03:15:32.300Z,6.50
2023-01-17T03:18:01.923Z,6.52
2023-01-17T03:20:31.476Z,6.40
2023-01-17T03:22:59.475Z,6.34
2023-01-17T03:25:27.570Z,6.55
2023-01-17T03:27:56.218Z,6.45
2023-01-17T03:30:24.500Z,6.50
2023-01-17T03:32:52.781Z,6.46
2023-01-17T03:35:20.859Z,6.36
2023-01-17T03:37:50.478Z,6.35
2023-01-17T03:40:18.869Z,6.41
2023-01-17T03:42:47.120Z,6.35
2023-01-17T03:45:15.222Z,6.19
2023-01-17T03:47:43.311Z,6.23
2023-01-17T03:50:13.132Z,6.20
2023-01-17T03:52:41.212Z,6.25
2023-01-17T03:55:11.578Z,6.27
2023-01-17T03:57:39.916Z,6.11
2023-01-17T04:00:09.268Z,6.17
2023-01-17T04:02:37.714Z,6.12
2023-01-17T04:05:06.483Z,6.04
2023-01-17T04:07:34.758Z,6.13
2023-01-17T04:10:02.910Z,6.01
2023-01-17T04:12:32.392Z,5.86
2023-01-17T04:15:00.478Z,5.92
2023-01-17T04:17:29.019Z,6.18
2023-01-17T04:19:57.148Z,6.21
2023-01-17T04:22:25.487Z,6.08
2023-01-17T04:24:56.042Z,6.04
2023-01-17T04:27:24.221Z,6.32
2023-01-17T04:29:56.082Z,6.12
2023-01-17T04:32:24.248Z,6.27
2023-01-17T04:34:52.819Z,6.40
2023-01-17T04:37:22.179Z,6.18
2023-01-17T04:39:50.230Z,6.26
2023-01-17T04:42:18.392Z,6.25
2023-01-17T04:44:47.856Z,6.32
2023-01-17T04:47:17.471Z,6.47
2023-01-17T04:49:45.621Z,6.29
2023-01-17T04:52:15.097Z,6.45
2023-01-17T04:54:43.247Z,6.49
2023-01-17T04:57:11.574Z,6.45
2023-01-17T04:59:41.802Z,6.37
2023-01-17T05:02:11.619Z,6.44
2023-01-17T05:04:41.220Z,6.24
2023-01-17T05:07:09.535Z,6.41
2023-01-17T05:09:37.640Z,6.39
2023-01-17T05:12:05.992Z,6.30
2023-01-17T05:14:34.596Z,6.21
2023-01-17T05:17:03.432Z,6.14
2023-01-17T05:19:31.591Z,6.26
2023-01-17T05:22:04.395Z,6.18
2023-01-17T05:24:32.605Z,6.04
2023-01-17T05:27:03.224Z,5.98
2023-01-17T05:29:31.557Z,6.25
2023-01-17T05:31:59.825Z,6.12
2023-01-17T05:34:31.088Z,6.04
2023-01-17T05:37:02.428Z,6.16
2023-01-17T05:39:31.067Z,6.22
2023-01-17T05:41:59.656Z,6.22
2023-01-17T05:44:28.509Z,5.94
2023-01-17T05:46:56.961Z,6.10
2023-01-17T05:49:25.772Z,6.19
2023-01-17T05:51:55.006Z,6.17
2023-01-17T05:54:24.687Z,5.98
2023-01-17T05:56:52.801Z,6.08
2023-01-17T05:59:35.979Z,5.90
2023-01-17T06:02:05.022Z,5.98
2023-01-17T06:04:33.291Z,6.08
2023-01-17T06:07:01.551Z,5.88
2023-01-17T06:09:31.118Z,6.11
2023-01-17T06:11:59.238Z,5.85
2023-01-17T06:14:27.383Z,6.03
2023-01-17T06:16:55.694Z,5.71
2023-01-17T06:19:24.076Z,5.89
2023-01-17T06:21:52.376Z,5.77
2023-01-17T06:24:20.437Z,5.85
2023-01-17T06:26:49.926Z,5.65
2023-01-17T06:29:19.237Z,5.74
2023-01-17T06:31:47.484Z,5.79
2023-01-17T06:34:15.546Z,5.86
2023-01-17T06:36:44.052Z,5.64
2023-01-17T06:39:14.843Z,5.88
2023-01-17T06:41:43.230Z,5.91
2023-01-17T06:44:12.895Z,5.77
2023-01-17T06:46:41.524Z,5.91
2023-01-17T06:49:09.626Z,5.66
2023-01-17T06:51:37.972Z,5.55
2023-01-17T06:54:06.232Z,5.78
2023-01-17T06:56:34.482Z,5.65
2023-01-17T06:59:02.443Z,5.61
2023-01-17T07:01:32.553Z,5.63
2023-01-17T07:04:01.003Z,5.61
2023-01-17T07:06:29.855Z,5.45
2023-01-17T07:08:59.075Z,5.50
2023-01-17T07:11:27.752Z,5.29
2023-01-17T07:13:55.889Z,5.37
2023-01-17T07:16:24.043Z,5.39
2023-01-17T07:18:54.894Z,5.20
2023-01-17T07:21:23.246Z,5.34
2023-01-17T07:23:51.335Z,5.05
2023-01-17T07:26:19.571Z,5.15
2023-01-17T07:28:47.793Z,5.14
2023-01-17T07:31:15.940Z,5.22
2023-01-17T07:33:44.161Z,5.08
2023-01-17T07:36:13.856Z,4.95
2023-01-17T07:38:44.013Z,4.94
2023-01-17T07:41:12.248Z,4.83
2023-01-17T07:43:40.722Z,5.08
2023-01-17T07:46:09.057Z,5.07
2023-01-17T07:48:37.218Z,4.85
2023-01-17T07:51:05.607Z,5.02
2023-01-17T07:53:35.186Z,5.03
2023-01-17T07:56:04.534Z,4.77
2023-01-17T07:58:32.942Z,4.72
2023-01-17T08:01:04.907Z,4.74
2023-01-17T08:03:36.314Z,4.70
2023-01-17T08:06:04.799Z,4.80
2023-01-17T08:08:36.461Z,4.91
2023-01-17T08:11:04.682Z,4.74
2023-01-17T08:13:32.976Z,4.66
2023-01-17T08:16:04.504Z,4.73
2023-01-17T08:18:35.891Z,4.63
2023-01-17T08:21:04.171Z,4.71
2023-01-17T08:23:33.227Z,4.53
2023-01-17T08:26:03.244Z,4.76
2023-01-17T08:28:31.646Z,4.47
2023-01-17T08:31:10.312Z,4.76
2023-01-17T08:33:44.416Z,4.74
2023-01-17T08:36:15.375Z,4.61
2023-01-17T08:38:44.391Z,4.99
2023-01-17T08:41:27.261Z,4.99
2023-01-17T08:43:55.580Z,5.11
2023-01-17T08:46:24.727Z,5.11
2023-01-17T08:48:55.787Z,5.16
2023-01-17T08:51:24.990Z,5.06
2023-01-17T08:53:53.302Z,5.19
2023-01-17T08:56:23.733Z,5.20
2023-01-17T08:58:54.356Z,5.16
2023-01-17T09:01:25.019Z,5.13
2023-01-17T09:03:54.940Z,5.07
2023-01-17T09:06:27.308Z,5.19
2023-01-17T09:08:55.662Z,4.94
2023-01-17T09:11:25.758Z,5.18
2023-01-17T09:13:55.596Z,4.92
2023-01-17T09:16:24.001Z,5.20
2023-01-17T09:18:55.114Z,4.91
2023-01-17T09:21:35.175Z,5.02
2023-01-17T09:24:05.133Z,5.13
2023-01-17T09:26:35.860Z,5.10
2023-01-17T09:29:05.518Z,5.04
2023-01-17T09:31:34.148Z,5.33
2023-01-17T09:34:02.583Z,5.37
2023-01-17T09:36:34.776Z,5.33
2023-01-17T09:39:03.722Z,5.32
2023-01-17T09:41:36.563Z,5.28
2023-01-17T09:44:11.597Z,5.55
2023-01-17T09:46:41.514Z,5.32
2023-01-17T09:49:13.020Z,5.35
2023-01-17T09:51:42.331Z,5.65
2023-01-17T09:54:18.727Z,5.61
2023-01-17T09:56:50.755Z,5.64
2023-01-17T09:59:33.229Z,5.54
2023-01-17T10:02:09.979Z,5.65
2023-01-17T10:05:05.831Z,5.63
2023-01-17T10:07:42.995Z,5.69
2023-01-17T10:10:25.083Z,5.70
2023-01-17T10:12:58.898Z,5.97
2023-01-17T10:15:43.902Z,6.03
2023-01-17T10:18:30.497Z,5.86
2023-01-17T10:21:04.467Z,6.05
2023-01-17T10:23:45.599Z,6.23
2023-01-17T10:26:17.132Z,6.21
2023-01-17T10:28:56.220Z,6.11
2023-01-17T10:31:28.814Z,6.20
2023-01-17T10:34:12.384Z,6.45
2023-01-17T10:37:26.653Z,6.60
2023-01-17T10:40:25.627Z,6.64
2023-01-17T10:42:56.286Z,6.72
2023-01-17T10:45:53.412Z,6.62
2023-01-17T10:48:49.837Z,6.74
2023-01-17T10:52:42.587Z,7.03
2023-01-17T10:56:03.528Z,7.06
2023-01-17T11:02:13.893Z,7.00
2023-01-17T11:05:06.720Z,7.27
2023-01-17T11:08:12.052Z,7.28
2023-01-17T11:15:08.489Z,7.47
2023-01-17T11:18:18.848Z,7.68
2023-01-17T11:24:12.980Z,8.11
2023-01-17T11:26:52.317Z,8.21
2023-01-17T11:29:44.559Z,8.22
2023-01-17T11:32:31.380Z,8.47
2023-01-17T11:35:23.979Z,8.59
2023-01-17T11:38:08.198Z,8.67
2023-01-17T11:41:14.531Z,8.71
2023-01-17T11:44:09.663Z,8.79
2023-01-17T11:46:42.722Z,8.63
2023-01-17T11:56:33.581Z,8.95
2023-01-17T11:59:48.036Z,8.89
2023-01-17T12:03:24.089Z,8.72
2023-01-17T12:06:05.904Z,8.71
2023-01-17T12:09:08.568Z,8.75
2023-01-17T12:12:11.662Z,8.86
2023-01-17T12:15:04.262Z,8.97
2023-01-17T12:18:08.156Z,9.15
2023-01-17T12:21:00.372Z,8.99
2023-01-17T12:24:25.507Z,9.14
2023-01-17T12:27:00.754Z,9.18
2023-01-17T12:30:04.333Z,9.10
2023-01-17T12:33:17.012Z,9.25
2023-01-17T12:35:52.288Z,9.35
2023-01-17T12:39:37.202Z,9.45
2023-01-17T12:46:32.804Z,9.59
2023-01-17T12:50:09.100Z,9.74
2023-01-17T12:53:12.055Z,9.62
2023-01-17T12:56:54.166Z,9.85
2023-01-17T13:06:42.163Z,9.84
2023-01-17T13:12:27.610Z,9.69
2023-01-17T13:15:16.708Z,9.47
2023-01-17T13:21:58.198Z,9.47
2023-01-17T13:25:08.761Z,9.43
2023-01-17T13:29:04.832Z,9.59
2023-01-17T13:32:39.000Z,9.41
2023-01-17T13:39:44.419Z,9.84
2023-01-17T13:42:20.602Z,9.72
2023-01-17T13:45:39.552Z,10.12
2023-01-17T13:48:50.285Z,10.17
2023-01-17T13:51:42.774Z,10.25
2023-01-17T13:58:54.878Z,10.19
2023-01-17T14:05:25.457Z,9.84
2023-01-17T14:11:14.503Z,9.67
2023-01-17T14:13:46.460Z,9.50
2023-01-17T14:16:31.698Z,9.61
2023-01-17T14:19:02.016Z,9.73
2023-01-17T14:21:36.066Z,9.57
2023-01-17T14:24:08.061Z,9.61
2023-01-17T14:26:44.494Z,9.59
2023-01-17T14:29:55.383Z,9.63
2023-01-17T14:32:26.471Z,9.36
2023-01-17T14:35:04.931Z,9.56
2023-01-17T14:37:53.161Z,9.64
2023-01-17T14:40:23.952Z,9.35
2023-01-17T14:42:57.398Z,9.53
2023-01-17T14:45:29.853Z,9.48
2023-01-17T14:48:00.943Z,9.42
2023-01-17T14:53:44.080Z,9.48
2023-01-17T15:00:30.256Z,9.29
2023-01-17T15:08:20.541Z,9.14
2023-01-17T15:11:09.312Z,9.20
2023-01-17T15:15:17.191Z,9.52
2023-01-17T15:22:20.967Z,9.36
2023-01-17T15:26:02.200Z,9.38
2023-01-17T15:28:53.648Z,9.11
2023-01-17T15:32:25.940Z,9.48
2023-01-17T15:35:38.004Z,9.58
2023-01-17T15:41:53.737Z,9.77
2023-01-17T15:44:58.053Z,9.79
2023-01-17T15:51:00.362Z,9.57
2023-01-17T15:53:52.201Z,9.70
2023-01-17T15:56:37.210Z,9.57
2023-01-17T15:59:36.565Z,9.68
2023-01-17T16:02:30.342Z,9.53
2023-01-17T16:05:50.077Z,9.28
2023-01-17T16:08:41.832Z,9.35
2023-01-17T16:11:16.169Z,9.17
2023-01-17T16:14:00.219Z,8.97
2023-01-17T16:16:33.531Z,9.05
2023-01-17T16:19:08.509Z,9.02
2023-01-17T16:21:48.965Z,8.70
2023-01-17T16:24:21.228Z,8.83
2023-01-17T16:30:17.602Z,8.57
2023-01-17T16:32:56.931Z,8.51
2023-01-17T16:35:43.515Z,8.36
2023-01-17T16:39:02.837Z,8.40
2023-01-17T16:41:55.153Z,8.32
2023-01-17T16:45:05.969Z,8.05
2023-01-17T16:47:37.704Z,7.96
2023-01-17T16:50:10.188Z,7.88
2023-01-17T16:53:01.111Z,8.15
2023-01-17T16:56:41.509Z,8.04
2023-01-17T16:59:22.200Z,8.11
2023-01-17T17:01:58.645Z,8.02
2023-01-17T17:04:30.995Z,8.03
2023-01-17T17:07:31.763Z,8.02
2023-01-17T17:10:20.919Z,8.00
2023-01-17T17:12:50.578Z,7.98
2023-01-17T17:15:26.049Z,7.91
2023-01-17T17:18:04.697Z,7.71
2023-01-17T17:21:18.300Z,7.95
2023-01-17T17:24:05.322Z,7.84
2023-01-17T17:26:36.930Z,7.67
2023-01-17T17:29:16.497Z,7.95
2023-01-17T17:31:46.471Z,7.97
2023-01-17T17:34:32.485Z,8.01
2023-01-17T17:37:06.031Z,7.81
2023-01-17T17:40:00.410Z,8.00
2023-01-17T17:42:31.227Z,8.00
2023-01-17T17:45:11.031Z,8.08
2023-01-17T17:47:48.848Z,7.95
2023-01-17T17:50:31.961Z,8.13
2023-01-17T17:53:15.137Z,8.20
2023-01-17T17:56:07.583Z,7.97
2023-01-17T17:58:39.915Z,8.02
2023-01-17T18:01:15.136Z,8.25
2023-01-17T18:03:48.279Z,8.18
2023-01-17T18:09:26.283Z,8.36
2023-01-17T18:12:11.394Z,8.35
2023-01-17T18:15:13.847Z,8.44
2023-01-17T18:17:57.467Z,8.32
2023-01-17T18:20:33.381Z,8.43
2023-01-17T18:23:39.372Z,8.59
2023-01-17T18:26:13.567Z,8.59
2023-01-17T18:28:44.130Z,8.61
2023-01-17T18:31:17.811Z,8.60
2023-01-17T18:33:50.890Z,8.36
2023-01-17T18:39:43.749Z,8.63
2023-01-17T18:42:15.392Z,8.33
2023-01-17T18:44:45.894Z,8.35
2023-01-17T18:47:33.685Z,8.57
2023-01-17T18:50:07.341Z,8.47
2023-01-17T18:52:44.927Z,8.33
2023-01-17T18:55:16.103Z,8.61
2023-01-17T18:57:54.008Z,8.60
2023-01-17T19:00:29.934Z,8.66
2023-01-17T19:03:03.511Z,8.48
2023-01-17T19:05:33.787Z,8.60
2023-01-17T19:08:34.826Z,8.68
2023-01-17T19:11:08.324Z,8.34
2023-01-17T19:13:51.198Z,8.48
2023-01-17T19:19:49.903Z,8.45
2023-01-17T19:22:18.948Z,8.38
2023-01-17T19:24:48.810Z,8.56
2023-01-17T19:27:30.352Z,8.54
2023-01-17T19:30:21.202Z,8.70
2023-01-17T19:32:56.036Z,8.54
2023-01-17T19:35:35.037Z,8.55
2023-01-17T19:38:04.042Z,8.76
2023-01-17T19:41:04.807Z,8.61
2023-01-17T19:43:37.119Z,8.76
2023-01-17T19:46:29.486Z,8.60
2023-01-17T19:49:09.026Z,8.73
2023-01-17T19:51:42.376Z,8.68
2023-01-17T19:54:19.908Z,8.59
2023-01-17T19:56:50.660Z,8.52
2023-01-17T19:59:22.726Z,8.74
2023-01-17T20:01:51.073Z,8.53
2023-01-17T20:04:21.442Z,8.65
2023-01-17T20:06:55.255Z,8.76
2023-01-17T20:09:27.629Z,8.76
2023-01-17T20:11:56.366Z,8.50
2023-01-17T20:14:25.630Z,8.70
2023-01-17T20:17:10.962Z,8.63
2023-01-17T20:19:45.980Z,8.66
2023-01-17T20:22:19.784Z,8.57
2023-01-17T20:24:55.260Z,8.58
2023-01-17T20:27:27.337Z,8.64
2023-01-17T20:29:56.903Z,8.46
2023-01-17T20:32:26.827Z,8.43
2023-01-17T20:34:57.295Z,8.35
2023-01-17T20:37:31.350Z,8.35
2023-01-17T20:40:09.318Z,8.33
2023-01-17T20:42:39.341Z,8.54
2023-01-17T20:45:11.498Z,8.50
2023-01-17T20:50:38.251Z,8.64
2023-01-17T20:53:16.398Z,8.38
2023-01-17T20:55:59.037Z,8.43
2023-01-17T20:58:34.964Z,8.45
2023-01-17T21:01:20.813Z,8.36
2023-01-17T21:03:59.120Z,8.59
2023-01-17T21:06:35.386Z,8.57
2023-01-17T21:09:07.370Z,8.57
2023-01-17T21:11:57.500Z,8.68
2023-01-17T21:15:26.310Z,8.71
2023-01-17T21:17:54.959Z,8.68
2023-01-17T21:20:45.671Z,8.43
2023-01-17T21:26:03.924Z,8.73
2023-01-17T21:28:35.177Z,8.47
2023-01-17T21:31:19.898Z,8.75
2023-01-17T21:33:56.408Z,8.62
2023-01-17T21:36:30.464Z,8.72
2023-01-17T21:38:59.748Z,8.77
2023-01-17T21:41:54.764Z,8.43
2023-01-17T21:44:26.345Z,8.80
2023-01-17T21:46:57.513Z,8.72
2023-01-17T21:49:33.584Z,8.74
2023-01-17T21:52:20.608Z,8.76
2023-01-17T21:55:09.899Z,8.84
2023-01-17T21:57:58.243Z,8.83
2023-01-17T22:00:26.905Z,8.63
2023-01-17T22:02:58.952Z,8.84
2023-01-17T22:05:58.351Z,8.86
2023-01-17T22:08:27.036Z,8.84
2023-01-17T22:10:55.893Z,8.79
2023-01-17T22:13:34.409Z,8.96
2023-01-17T22:16:09.365Z,8.96
2023-01-17T22:18:40.571Z,8.95
2023-01-17T22:21:10.143Z,8.69
2023-01-17T22:23:41.505Z,8.91
2023-01-17T22:26:18.449Z,8.84
2023-01-17T22:28:48.778Z,8.69
2023-01-17T22:31:23.079Z,8.96
2023-01-17T22:33:55.383Z,8.96
2023-01-17T22:36:26.071Z,8.78
2023-01-17T22:38:55.124Z,8.93
2023-01-17T22:41:29.868Z,8.83
2023-01-17T22:44:24.791Z,8.86
2023-01-17T22:47:03.504Z,9.01
2023-01-17T22:49:38.920Z,8.99
2023-01-17T22:52:08.525Z,8.95
2023-01-17T22:54:37.291Z,9.00
2023-01-17T22:57:12.741Z,8.95
2023-01-17T22:59:42.710Z,9.01
2023-01-17T23:02:15.694Z,8.77
2023-01-17T23:04:52.712Z,8.82
2023-01-17T23:07:27.081Z,8.72
2023-01-17T23:10:00.161Z,8.90
2023-01-17T23:12:33.015Z,8.63
2023-01-17T23:15:20.705Z,8.88
2023-01-17T23:18:16.013Z,8.73
2023-01-17T23:20:44.465Z,8.54
2023-01-17T23:23:17.514Z,8.64
2023-01-17T23:25:48.161Z,8.66
2023-01-17T23:28:21.154Z,8.55
2023-01-17T23:30:52.188Z,8.70
2023-01-17T23:33:25.104Z,8.63
2023-01-17T23:35:53.459Z,8.59
2023-01-17T23:38:29.734Z,8.38
2023-01-17T23:41:24.217Z,8.56
2023-01-17T23:43:55.725Z,8.46
2023-01-17T23:46:27.526Z,8.41
2023-01-17T23:48:58.692Z,8.66
2023-01-17T23:51:28.206Z,8.52
2023-01-17T23:54:06.247Z,8.73
2023-01-17T23:56:35.265Z,8.71
2023-01-17T23:59:04.556Z,8.60
